Time;durP1;ratioP1;P1;durP2;ratioP2;P2;SDS_P1;SDS_P2;PMS_P1;PMS_P2;Temp;Humidity;BMP_temperature;BMP_pressure;BME280_temperature;BME280_humidity;BME280_pressure;Samples;Min_cycle;Max_cycle;Signal;HPM_P1;HPM_P2
2024/01/21 00:00:24;;;;;;;15.85;6.97;;;;;;;-0.50;73.53;102332.22;4995173;28;20030;-84
2024/01/21 00:02:50;;;;;;;10.13;6.30;;;;;;;-0.51;73.69;102318.34;4995159;28;20148;-84
2024/01/21 00:05:15;;;;;;;13.55;6.63;;;;;;;-0.55;73.30;102297.22;5012212;28;20245;-84
2024/01/21 00:07:41;;;;;;;11.23;5.78;;;;;;;-0.57;73.33;102297.06;5012469;28;20034;-84
2024/01/21 00:10:09;;;;;;;11.77;6.32;;;;;;;-0.63;72.90;102267.16;5012161;28;20033;-86
2024/01/21 00:12:34;;;;;;;12.27;6.85;;;;;;;-0.51;72.33;102300.16;5012545;28;20061;-84
2024/01/21 00:14:59;;;;;;;12.32;6.28;;;;;;;-0.59;72.48;102289.97;5012138;28;20103;-84
2024/01/21 00:17:25;;;;;;;10.82;6.38;;;;;;;-0.68;72.92;102284.06;5012553;28;20390;-83
2024/01/21 00:19:50;;;;;;;12.55;6.40;;;;;;;-0.81;72.37;102280.47;5012469;28;20523;-84
2024/01/21 00:22:15;;;;;;;10.57;5.80;;;;;;;-0.80;72.59;102278.78;5012738;28;20382;-83
2024/01/21 00:24:41;;;;;;;8.93;5.32;;;;;;;-0.77;72.66;102279.03;4995241;28;20038;-84
2024/01/21 00:27:06;;;;;;;11.15;6.00;;;;;;;-0.99;71.88;102262.53;5012345;28;20084;-85
2024/01/21 00:29:31;;;;;;;13.90;6.32;;;;;;;-0.93;72.53;102258.75;5015655;28;20401;-83
2024/01/21 00:31:57;;;;;;;10.30;5.68;;;;;;;-0.86;72.70;102261.03;5015542;28;20050;-84
2024/01/21 00:34:22;;;;;;;10.75;6.20;;;;;;;-0.83;71.74;102270.75;5015812;28;20546;-84
2024/01/21 00:36:48;;;;;;;10.25;5.65;;;;;;;-0.90;72.21;102250.28;4998385;28;20026;-84
2024/01/21 00:39:13;;;;;;;9.13;5.53;;;;;;;-0.80;72.13;102258.94;5016032;28;20054;-84
2024/01/21 00:41:38;;;;;;;8.95;5.35;;;;;;;-0.82;71.85;102254.38;5016191;28;20057;-84
2024/01/21 00:44:04;;;;;;;9.07;5.60;;;;;;;-0.94;72.14;102233.59;4998593;28;20037;-84
2024/01/21 00:46:29;;;;;;;10.80;5.80;;;;;;;-0.83;71.25;102257.78;5015682;28;20030;-84
2024/01/21 00:48:55;;;;;;;10.10;5.53;;;;;;;-0.89;71.62;102258.22;5015767;28;20117;-85
2024/01/21 00:51:20;;;;;;;8.45;5.30;;;;;;;-0.99;71.75;102241.78;5015540;28;20049;-84
2024/01/21 00:53:46;;;;;;;9.88;5.68;;;;;;;-0.96;71.51;102240.34;5015433;28;20034;-84
2024/01/21 00:56:11;;;;;;;11.00;5.90;;;;;;;-1.00;71.39;102248.66;5015652;28;20471;-84
2024/01/21 00:58:36;;;;;;;9.85;5.03;;;;;;;-0.96;71.21;102261.09;4998172;28;20054;-84
2024/01/21 01:01:02;;;;;;;9.75;5.72;;;;;;;-1.06;70.51;102232.63;5015523;28;20038;-84
2024/01/21 01:03:27;;;;;;;11.00;5.60;;;;;;;-1.07;71.37;102231.72;5015307;28;20498;-84
2024/01/21 01:05:53;;;;;;;9.70;5.35;;;;;;;-0.94;71.90;102256.94;5015447;28;20479;-84
2024/01/21 01:08:18;;;;;;;10.63;5.82;;;;;;;-1.18;70.94;102206.59;5015705;28;20026;-84
2024/01/21 01:10:44;;;;;;;10.98;5.68;;;;;;;-0.93;71.21;102244.88;5015720;28;20157;-84
2024/01/21 01:13:09;;;;;;;12.90;6.20;;;;;;;-0.89;70.62;102239.16;4997784;28;20037;-84
2024/01/21 01:15:35;;;;;;;9.88;5.65;;;;;;;-0.88;70.65;102239.25;5015242;28;20089;-84
2024/01/21 01:18:01;;;;;;;10.73;5.80;;;;;;;-1.02;70.66;102207.03;5014822;28;20486;-84
2024/01/21 01:20:26;;;;;;;9.00;5.00;;;;;;;-0.94;70.08;102212.84;5014622;28;20121;-85
2024/01/21 01:22:51;;;;;;;11.15;5.95;;;;;;;-0.97;70.20;102198.72;5014891;28;20105;-84
2024/01/21 01:25:17;;;;;;;12.20;6.75;;;;;;;-0.92;70.53;102202.56;4997131;28;20034;-84
2024/01/21 01:27:42;;;;;;;9.23;5.82;;;;;;;-1.08;70.02;102170.22;5014891;28;20053;-85
2024/01/21 01:30:08;;;;;;;9.15;5.25;;;;;;;-1.16;70.22;102160.03;5014865;28;20120;-85
2024/01/21 01:32:33;;;;;;;13.52;6.13;;;;;;;-1.02;70.49;102187.97;4997135;28;20474;-84
2024/01/21 01:35:00;;;;;;;9.93;5.43;;;;;;;-1.10;70.48;102183.88;5015045;28;20114;-84
2024/01/21 01:37:25;;;;;;;16.10;6.35;;;;;;;-1.09;69.91;102190.88;4997444;28;20048;-84
2024/01/21 01:39:51;;;;;;;10.35;5.57;;;;;;;-1.22;70.18;102169.94;5014529;28;20030;-84
2024/01/21 01:42:16;;;;;;;11.77;6.35;;;;;;;-1.27;70.27;102178.25;4997155;28;20041;-84
2024/01/21 01:44:42;;;;;;;10.57;6.10;;;;;;;-1.24;70.94;102169.81;5014755;28;20490;-84
2024/01/21 01:47:08;;;;;;;11.70;5.93;;;;;;;-1.28;70.56;102165.19;5014441;28;20038;-84
2024/01/21 01:49:35;;;;;;;11.85;6.40;;;;;;;-1.31;71.24;102149.38;5014523;28;20080;-84
2024/01/21 01:52:01;;;;;;;10.27;5.60;;;;;;;-1.30;70.90;102152.06;5014185;28;20064;-84
2024/01/21 01:54:29;;;;;;;10.85;5.53;;;;;;;-1.32;70.20;102139.78;4980584;28;20065;-84
2024/01/21 01:56:54;;;;;;;9.38;5.40;;;;;;;-1.42;70.43;102127.75;5014385;28;20030;-86
2024/01/21 01:59:20;;;;;;;12.85;5.80;;;;;;;-1.48;71.04;102106.56;5014322;28;20041;-83
2024/01/21 02:01:46;;;;;;;11.82;5.45;;;;;;;-1.29;70.54;102135.72;5014283;28;20030;-84
2024/01/21 02:04:11;;;;;;;11.20;5.47;;;;;;;-1.50;70.17;102102.91;5014511;28;20451;-83
2024/01/21 02:06:38;;;;;;;10.85;5.53;;;;;;;-1.56;70.13;102085.19;4996556;28;20593;-83
2024/01/21 02:09:05;;;;;;;10.13;5.45;;;;;;;-1.34;70.73;102131.88;5014128;28;20037;-83
2024/01/21 02:11:30;;;;;;;11.13;5.60;;;;;;;-1.29;70.67;102132.22;5014234;28;20034;-84
2024/01/21 02:13:56;;;;;;;10.70;5.72;;;;;;;-1.29;71.03;102114.06;5014181;28;20546;-84
2024/01/21 02:16:21;;;;;;;8.55;4.82;;;;;;;-1.46;70.82;102075.56;5014018;28;20042;-84
2024/01/21 02:18:49;;;;;;;9.07;5.03;;;;;;;-1.47;70.92;102082.44;4996269;28;20057;-83
2024/01/21 02:21:15;;;;;;;10.73;5.25;;;;;;;-1.40;71.72;102109.75;5013871;28;20372;-84
2024/01/21 02:23:40;;;;;;;9.23;5.13;;;;;;;-1.43;71.21;102105.22;5014078;28;20032;-84
2024/01/21 02:26:05;;;;;;;8.80;4.80;;;;;;;-1.54;71.24;102075.88;5013720;28;20121;-83
2024/01/21 02:28:31;;;;;;;9.32;5.05;;;;;;;-1.76;71.12;102036.06;5014130;28;20069;-84
2024/01/21 02:30:56;;;;;;;9.98;5.30;;;;;;;-1.48;71.03;102079.72;5013755;28;20041;-84
2024/01/21 02:33:21;;;;;;;8.95;5.00;;;;;;;-1.58;71.62;102057.38;5013903;28;20136;-83
2024/01/21 02:35:47;;;;;;;8.68;4.88;;;;;;;-1.45;70.83;102080.88;5013728;28;20061;-84
2024/01/21 02:38:12;;;;;;;9.40;4.60;;;;;;;-1.57;71.01;102054.88;5013989;28;20467;-83
2024/01/21 02:40:38;;;;;;;10.30;5.00;;;;;;;-1.41;71.47;102064.78;5013923;28;20034;-83
2024/01/21 02:43:04;;;;;;;8.35;4.65;;;;;;;-1.40;71.10;102061.41;5013614;28;20033;-83
2024/01/21 02:45:30;;;;;;;9.52;4.78;;;;;;;-1.51;72.38;102029.44;5013729;28;20029;-84
2024/01/21 02:47:55;;;;;;;9.20;5.00;;;;;;;-1.35;72.39;102044.50;5013693;28;20026;-84
2024/01/21 02:50:21;;;;;;;10.30;4.68;;;;;;;-1.39;71.28;102032.09;5013327;28;20065;-84
2024/01/21 02:52:46;;;;;;;13.57;6.32;;;;;;;-1.23;71.85;102047.16;5013417;28;20402;-84
2024/01/21 02:55:11;;;;;;;8.68;4.60;;;;;;;-1.22;71.63;102035.97;5013845;28;20038;-83
2024/01/21 02:57:37;;;;;;;8.75;4.68;;;;;;;-1.11;71.08;102049.78;5013719;28;20482;-84
2024/01/21 03:00:04;;;;;;;7.95;4.40;;;;;;;-1.27;69.98;102029.56;5013368;28;20441;-83
2024/01/21 03:02:30;;;;;;;8.40;4.30;;;;;;;-1.12;69.55;102051.44;5013612;28;20034;-83
2024/01/21 03:04:56;;;;;;;6.60;4.03;;;;;;;-1.12;69.87;102047.97;5013570;28;20030;-83
2024/01/21 03:07:21;;;;;;;8.45;4.65;;;;;;;-1.22;70.33;102020.44;5013703;28;20030;-84
2024/01/21 03:09:46;;;;;;;7.97;4.10;;;;;;;-1.12;69.68;102029.81;5013515;28;20489;-83
2024/01/21 03:12:12;;;;;;;6.57;3.80;;;;;;;-1.02;69.66;102034.94;5013554;28;20104;-83
2024/01/21 03:14:37;;;;;;;9.02;5.13;;;;;;;-1.08;69.62;102018.88;4995913;28;20040;-84
2024/01/21 03:17:03;;;;;;;7.28;4.40;;;;;;;-1.07;70.01;102024.22;4995544;28;20045;-83
2024/01/21 03:19:28;;;;;;;10.50;4.53;;;;;;;-1.09;70.39;102006.72;4995608;28;20524;-83
2024/01/21 03:21:54;;;;;;;6.28;3.80;;;;;;;-1.06;69.98;102001.75;5013398;28;20065;-84
2024/01/21 03:24:19;;;;;;;8.07;4.47;;;;;;;-0.99;69.80;102013.50;4995524;28;20129;-84
2024/01/21 03:26:45;;;;;;;7.40;4.13;;;;;;;-1.00;70.21;102017.78;4995845;28;20034;-84
2024/01/21 03:29:10;;;;;;;7.97;4.50;;;;;;;-1.07;70.38;101999.94;5013396;28;20493;-84
2024/01/21 03:31:35;;;;;;;6.82;3.60;;;;;;;-1.17;70.46;101989.66;4995924;28;20048;-84
2024/01/21 03:34:03;;;;;;;7.95;4.28;;;;;;;-1.04;70.27;102029.59;5012892;28;20046;-84
2024/01/21 03:36:29;;;;;;;5.85;3.00;;;;;;;-1.06;70.26;102031.19;5013226;28;20108;-84
2024/01/21 03:38:54;;;;;;;8.05;4.30;;;;;;;-1.08;70.15;102016.28;5013223;28;20518;-86
2024/01/21 03:41:20;;;;;;;7.78;4.03;;;;;;;-1.04;69.80;102013.16;5013120;28;20049;-84
2024/01/21 03:43:45;;;;;;;7.68;4.03;;;;;;;-1.27;70.13;101975.09;5013236;28;20501;-84
2024/01/21 03:46:10;;;;;;;6.35;4.03;;;;;;;-1.02;70.68;102014.19;4995463;28;20042;-93
2024/01/21 03:48:36;;;;;;;5.75;3.80;;;;;;;-1.02;70.68;102004.72;5013191;28;20038;-83
2024/01/21 03:51:01;;;;;;;6.00;3.50;;;;;;;-1.15;70.65;101981.22;5013099;28;20080;-83
2024/01/21 03:53:27;;;;;;;10.05;4.22;;;;;;;-0.99;70.70;102000.50;5013127;28;20034;-84
2024/01/21 03:55:52;;;;;;;6.97;4.30;;;;;;;-0.93;70.58;102012.28;5013099;28;20041;-83
2024/01/21 03:58:18;;;;;;;6.80;4.00;;;;;;;-0.92;70.16;102006.28;5012827;28;20083;-84
2024/01/21 04:00:43;;;;;;;7.47;4.18;;;;;;;-1.01;70.14;101982.25;5013049;28;20030;-84
2024/01/21 04:03:08;;;;;;;6.78;3.78;;;;;;;-0.93;70.76;101977.66;5014412;28;20439;-84
2024/01/21 04:05:34;;;;;;;7.78;4.20;;;;;;;-0.85;70.87;101963.56;4999218;28;20033;-83
2024/01/21 04:07:59;;;;;;;7.30;3.97;;;;;;;-0.87;71.94;101963.44;5016762;28;20030;-84
2024/01/21 04:10:25;;;;;;;6.47;3.78;;;;;;;-0.88;71.49;101965.91;5016666;28;20556;-83
2024/01/21 04:12:50;;;;;;;7.72;4.00;;;;;;;-0.89;71.14;101959.84;5016912;28;20040;-84
2024/01/21 04:15:15;;;;;;;8.25;3.58;;;;;;;-0.85;70.75;101948.00;5016585;28;20061;-84
2024/01/21 04:17:41;;;;;;;7.47;3.70;;;;;;;-0.97;71.33;101926.31;4982527;28;20433;-84
2024/01/21 04:20:08;;;;;;;8.00;3.70;;;;;;;-0.95;71.53;101933.41;5016234;28;20072;-86
2024/01/21 04:22:34;;;;;;;7.68;3.80;;;;;;;-0.82;71.19;101943.91;5016473;28;20076;-84
2024/01/21 04:24:59;;;;;;;8.30;3.92;;;;;;;-0.88;71.02;101935.69;5016183;28;20038;-84
2024/01/21 04:27:24;;;;;;;8.30;4.13;;;;;;;-0.88;71.50;101940.88;5016608;28;20057;-84
2024/01/21 04:29:50;;;;;;;8.70;3.70;;;;;;;-0.77;70.99;101952.97;5016397;28;20030;-83
2024/01/21 04:32:15;;;;;;;7.22;4.05;;;;;;;-0.76;71.32;101946.06;5016204;28;20049;-83
2024/01/21 04:34:40;;;;;;;7.05;3.75;;;;;;;-0.69;70.85;101947.41;5016262;28;20429;-84
2024/01/21 04:37:06;;;;;;;7.72;4.35;;;;;;;-0.67;71.30;101945.84;4998672;28;20048;-83
2024/01/21 04:39:31;;;;;;;6.18;3.80;;;;;;;-0.60;71.10;101935.09;5016120;28;20084;-84
2024/01/21 04:41:57;;;;;;;7.07;3.55;;;;;;;-0.70;70.54;101904.09;5016081;28;20041;-83
2024/01/21 04:44:22;;;;;;;6.65;4.00;;;;;;;-0.68;71.28;101903.44;4998361;28;20042;-83
2024/01/21 04:46:47;;;;;;;7.72;4.57;;;;;;;-0.71;70.90;101871.16;5016160;28;20036;-83
2024/01/21 04:49:13;;;;;;;7.88;4.15;;;;;;;-0.47;71.15;101896.28;4998159;28;20038;-84
2024/01/21 04:51:38;;;;;;;7.65;3.90;;;;;;;-0.56;71.50;101867.97;5015931;28;20034;-84
2024/01/21 04:54:04;;;;;;;7.13;4.60;;;;;;;-0.42;71.93;101887.13;5015634;28;20367;-83
2024/01/21 04:56:29;;;;;;;7.57;4.03;;;;;;;-0.38;71.97;101873.56;5015558;28;20030;-84
2024/01/21 04:58:55;;;;;;;7.43;4.20;;;;;;;-0.33;71.97;101868.69;5015714;28;20092;-84
2024/01/21 05:01:22;;;;;;;8.55;4.13;;;;;;;-0.33;72.28;101840.13;4998296;28;20030;-85
2024/01/21 05:03:47;;;;;;;8.30;4.50;;;;;;;-0.39;71.94;101838.00;5015690;28;20081;-85
2024/01/21 05:06:12;;;;;;;9.98;4.38;;;;;;;-0.22;72.18;101836.56;5015642;28;20033;-85
2024/01/21 05:08:39;;;;;;;7.80;4.30;;;;;;;-0.20;72.00;101835.00;5015574;28;20493;-85
2024/01/21 05:11:04;;;;;;;9.95;4.50;;;;;;;-0.07;71.68;101848.06;5015690;28;20550;-84
2024/01/21 05:13:29;;;;;;;7.07;3.95;;;;;;;-0.05;71.17;101838.66;4997543;28;20121;-84
2024/01/21 05:15:55;;;;;;;8.55;4.30;;;;;;;0.05;70.81;101836.72;5015527;28;20045;-84
2024/01/21 05:18:20;;;;;;;9.35;4.75;;;;;;;0.16;70.82;101838.31;5015028;28;20030;-84
2024/01/21 05:20:46;;;;;;;7.75;4.65;;;;;;;0.43;69.94;101857.53;5015515;28;20030;-84
2024/01/21 05:23:12;;;;;;;6.68;4.32;;;;;;;0.53;69.08;101857.34;5015424;28;20065;-84
2024/01/21 05:25:37;;;;;;;11.50;5.35;;;;;;;0.47;70.04;101850.03;5015107;28;20092;-84
2024/01/21 05:28:03;;;;;;;8.70;4.70;;;;;;;0.63;69.13;101859.75;5015028;28;20088;-84
2024/01/21 05:30:29;;;;;;;8.50;4.63;;;;;;;0.67;69.41;101856.53;4997690;28;20083;-84
2024/01/21 05:33:14;;;;;;;9.27;4.95;;;;;;;0.75;68.77;101842.34;4994349;28;20050;-84
2024/01/21 05:35:39;;;;;;;9.55;4.80;;;;;;;0.72;68.97;101847.34;4995725;28;20041;-86
2024/01/21 05:38:05;;;;;;;8.63;5.07;;;;;;;0.73;68.84;101846.56;4994037;28;20038;-83
2024/01/21 05:40:30;;;;;;;9.43;5.05;;;;;;;0.81;68.46;101841.84;4994560;28;20046;-85
2024/01/21 05:42:56;;;;;;;9.82;5.32;;;;;;;0.88;68.63;101851.88;4995526;28;20066;-83
2024/01/21 05:45:22;;;;;;;7.22;4.60;;;;;;;0.77;68.38;101842.44;4994125;28;20383;-85
2024/01/21 05:47:48;;;;;;;8.38;4.65;;;;;;;0.69;68.85;101808.16;4993953;28;20119;-83
2024/01/21 05:50:13;;;;;;;7.88;4.72;;;;;;;0.69;68.28;101807.25;4995265;28;20165;-84
2024/01/21 05:52:38;;;;;;;8.90;4.95;;;;;;;0.77;68.93;101812.94;4994966;28;20037;-83
2024/01/21 05:55:04;;;;;;;8.93;5.43;;;;;;;0.74;68.98;101821.44;4993751;28;20031;-84
2024/01/21 05:57:30;;;;;;;8.90;5.00;;;;;;;0.72;69.59;101816.13;4995113;28;20030;-83
2024/01/21 05:59:55;;;;;;;10.40;6.00;;;;;;;0.87;68.57;101833.56;4994978;28;20041;-85
2024/01/21 06:02:21;;;;;;;7.97;4.65;;;;;;;0.88;68.50;101828.44;4993963;28;20087;-83
2024/01/21 06:04:46;;;;;;;7.45;4.55;;;;;;;0.95;68.45;101842.78;4995180;28;20040;-83
2024/01/21 06:07:11;;;;;;;9.30;5.13;;;;;;;1.00;67.65;101852.69;4993695;28;20030;-83
2024/01/21 06:09:37;;;;;;;8.88;5.35;;;;;;;0.88;68.36;101818.03;4994914;28;20111;-83
2024/01/21 06:12:02;;;;;;;10.50;6.25;;;;;;;0.94;68.96;101831.47;4995091;28;20034;-83
2024/01/21 06:14:28;;;;;;;11.55;5.35;;;;;;;0.90;68.42;101829.47;4993802;28;20030;-83
2024/01/21 06:16:56;;;;;;;9.43;5.10;;;;;;;0.90;69.46;101832.06;4994955;28;20038;-82
2024/01/21 06:19:21;;;;;;;9.25;4.95;;;;;;;0.95;68.64;101845.38;4994600;28;20117;-83
2024/01/21 06:21:47;;;;;;;12.05;6.18;;;;;;;0.92;68.26;101825.25;4994755;28;20101;-83
2024/01/21 06:24:13;;;;;;;10.93;5.65;;;;;;;0.97;68.32;101836.84;4994749;28;20092;-84
2024/01/21 06:26:40;;;;;;;9.57;5.50;;;;;;;0.97;68.82;101841.16;4992895;28;20040;-83
2024/01/21 06:29:09;;;;;;;9.95;5.55;;;;;;;0.97;68.69;101859.38;4977499;28;20042;-84
2024/01/21 06:31:35;;;;;;;8.40;5.45;;;;;;;0.93;68.77;101863.47;4993406;28;20399;-84
2024/01/21 06:34:00;;;;;;;9.55;5.10;;;;;;;1.03;68.56;101865.00;4976770;28;20432;-84
2024/01/21 06:36:25;;;;;;;9.60;5.15;;;;;;;0.92;68.63;101832.16;4993430;28;20053;-83
2024/01/21 06:38:51;;;;;;;9.27;5.70;;;;;;;1.07;67.76;101856.59;4994439;28;20375;-84
2024/01/21 06:41:17;;;;;;;10.40;5.35;;;;;;;1.11;68.00;101853.34;4994661;28;20364;-83
2024/01/21 06:43:42;;;;;;;9.30;5.22;;;;;;;1.11;67.86;101866.38;4994859;28;20034;-84
2024/01/21 06:46:12;;;;;;;9.65;4.90;;;;;;;0.96;67.77;101832.47;4977386;28;20033;-83
2024/01/21 06:48:37;;;;;;;9.45;5.03;;;;;;;1.12;67.68;101849.97;4994793;28;20062;-83
2024/01/21 06:54:27;;;;;;;13.02;5.70;;;;;;;1.17;68.05;101868.50;4994296;28;20085;-83
2024/01/21 06:56:52;;;;;;;12.93;7.15;;;;;;;1.14;66.49;101860.47;4993342;28;20025;-84
2024/01/21 06:59:17;;;;;;;10.20;5.93;;;;;;;0.94;66.52;101840.94;4994875;28;20034;-83
2024/01/21 07:01:43;;;;;;;10.90;5.88;;;;;;;1.24;66.50;101862.84;4993031;28;20038;-84
2024/01/21 07:04:09;;;;;;;8.90;5.70;;;;;;;1.28;66.04;101870.06;4993086;28;20100;-84
2024/01/21 07:06:34;;;;;;;10.98;5.88;;;;;;;1.18;66.29;101842.53;4994083;28;20102;-84
2024/01/21 07:09:00;;;;;;;13.00;6.43;;;;;;;1.30;66.88;101846.75;4992587;28;20118;-84
2024/01/21 07:11:25;;;;;;;12.07;5.70;;;;;;;1.22;65.91;101813.31;4994214;28;20029;-83
2024/01/21 07:13:51;;;;;;;10.10;5.35;;;;;;;1.36;65.68;101815.88;4993973;28;20394;-84
2024/01/21 07:16:16;;;;;;;9.43;4.93;;;;;;;1.39;65.55;101801.34;4994138;28;20039;-84
2024/01/21 07:18:41;;;;;;;7.78;4.70;;;;;;;1.35;64.90;101788.06;4992769;28;20030;-84
2024/01/21 07:21:07;;;;;;;11.35;5.60;;;;;;;1.43;64.67;101800.75;4992963;28;20062;-85
2024/01/21 07:23:32;;;;;;;9.23;5.13;;;;;;;1.45;64.54;101803.44;4992671;28;20038;-85
2024/01/21 07:25:58;;;;;;;9.93;5.57;;;;;;;1.45;64.46;101806.94;4993806;28;20031;-83
2024/01/21 07:28:23;;;;;;;9.00;4.88;;;;;;;1.46;64.12;101816.56;4994148;28;20034;-84
2024/01/21 07:30:49;;;;;;;10.27;5.18;;;;;;;1.36;64.47;101785.53;4992704;28;20362;-84
2024/01/21 07:33:34;;;;;;;9.25;5.78;;;;;;;1.45;64.84;101806.94;5002863;28;20439;-84
2024/01/21 07:36:03;;;;;;;7.70;5.07;;;;;;;1.45;64.06;101798.22;5013643;28;20038;-84
2024/01/21 07:38:28;;;;;;;9.13;5.30;;;;;;;1.43;64.51;101816.38;4983786;28;20413;-84
2024/01/21 07:40:54;;;;;;;9.82;5.20;;;;;;;1.37;65.13;101794.25;4999411;28;20096;-84
2024/01/21 07:43:19;;;;;;;10.52;5.03;;;;;;;1.05;64.49;101750.56;5019571;28;20030;-84
2024/01/21 07:45:45;;;;;;;11.02;5.88;;;;;;;1.27;65.19;101790.16;5016919;28;20069;-84
2024/01/21 07:48:10;;;;;;;8.80;4.75;;;;;;;1.39;65.30;101790.03;5017132;28;20036;-84
2024/01/21 07:50:35;;;;;;;9.93;5.35;;;;;;;1.31;64.78;101784.34;5016995;28;20026;-84
2024/01/21 07:53:01;;;;;;;9.68;4.75;;;;;;;1.39;65.35;101829.09;4999165;28;20065;-84
2024/01/21 07:55:26;;;;;;;8.75;5.18;;;;;;;1.36;65.22;101837.63;5017598;28;20529;-84
2024/01/21 07:57:52;;;;;;;11.82;5.20;;;;;;;1.36;64.95;101837.63;5016942;28;20029;-85
2024/01/21 08:00:17;;;;;;;9.40;5.50;;;;;;;1.22;64.84;101821.13;5016935;28;20076;-85
2024/01/21 08:02:43;;;;;;;8.60;5.07;;;;;;;1.38;64.83;101846.44;4998774;28;20038;-85
2024/01/21 08:05:08;;;;;;;8.77;4.88;;;;;;;1.34;65.17;101865.28;5016448;28;20101;-85
2024/01/21 08:07:34;;;;;;;10.27;5.35;;;;;;;1.40;65.26;101882.97;4982576;28;20045;-84
2024/01/21 08:10:00;;;;;;;9.63;5.22;;;;;;;1.35;66.09;101884.41;4998766;28;20112;-84
2024/01/21 08:12:25;;;;;;;9.23;5.05;;;;;;;1.23;65.32;101877.59;5016425;28;20030;-84
2024/01/21 08:14:51;;;;;;;9.52;5.05;;;;;;;1.37;66.08;101909.75;5016582;28;20109;-84
2024/01/21 08:17:16;;;;;;;8.05;5.25;;;;;;;1.39;66.13;101922.84;5016346;28;20479;-84
2024/01/21 08:19:42;;;;;;;10.60;5.53;;;;;;;1.40;66.46;101911.63;5016271;28;20026;-84
2024/01/21 08:22:08;;;;;;;8.07;4.82;;;;;;;1.33;66.70;101891.19;4998360;28;20128;-85
2024/01/21 08:24:34;;;;;;;10.43;5.07;;;;;;;1.52;66.17;101919.34;5016377;28;20117;-85
2024/01/21 08:27:00;;;;;;;7.43;4.43;;;;;;;1.50;65.70;101893.22;4998431;28;20463;-85
2024/01/21 08:29:27;;;;;;;8.20;4.85;;;;;;;1.64;65.98;101905.41;5015922;28;20064;-84
2024/01/21 08:31:54;;;;;;;8.52;4.50;;;;;;;1.68;66.43;101885.66;4998420;28;20029;-84
2024/01/21 08:34:20;;;;;;;9.00;5.43;;;;;;;1.73;66.65;101892.06;5015413;28;20052;-84
2024/01/21 08:36:45;;;;;;;7.65;4.22;;;;;;;1.62;66.44;101895.66;5015967;28;20038;-84
2024/01/21 08:39:10;;;;;;;6.88;4.38;;;;;;;1.75;66.58;101885.22;5016052;28;20030;-84
2024/01/21 08:41:36;;;;;;;8.43;5.20;;;;;;;1.78;66.07;101894.94;4998085;28;20037;-84
2024/01/21 08:44:05;;;;;;;9.30;4.65;;;;;;;1.82;66.02;101871.78;5015558;28;20061;-84
2024/01/21 08:46:30;;;;;;;6.53;4.55;;;;;;;1.86;65.76;101883.28;5015414;28;20073;-86
2024/01/21 08:48:56;;;;;;;8.02;4.50;;;;;;;1.90;66.23;101887.91;5014383;28;20165;-85
2024/01/21 08:51:22;;;;;;;7.28;4.38;;;;;;;1.70;66.36;101855.38;5015213;28;20478;-83
2024/01/21 08:53:47;;;;;;;9.27;5.00;;;;;;;1.85;67.00;101882.41;5015482;28;20117;-84
2024/01/21 08:56:13;;;;;;;7.35;4.68;;;;;;;1.93;67.33;101881.16;4997961;28;20402;-84
2024/01/21 08:58:38;;;;;;;8.48;4.90;;;;;;;2.04;68.57;101909.59;4997924;28;20129;-83
2024/01/21 09:01:04;;;;;;;9.65;5.00;;;;;;;2.02;70.43;101895.59;5015188;28;20459;-84
2024/01/21 09:03:30;;;;;;;8.35;4.82;;;;;;;2.06;70.35;101895.88;5015864;28;20057;-84
2024/01/21 09:05:56;;;;;;;10.82;5.22;;;;;;;2.13;70.76;101908.44;5014942;28;20034;-85
2024/01/21 09:08:21;;;;;;;7.72;4.65;;;;;;;2.13;71.89;101895.41;5014977;28;20089;-85
2024/01/21 09:10:47;;;;;;;9.05;5.70;;;;;;;2.14;73.13;101892.03;5015964;28;20096;-85
2024/01/21 09:13:13;;;;;;;8.77;4.95;;;;;;;2.16;73.82;101885.19;4997825;28;20120;-84
2024/01/21 09:15:40;;;;;;;8.50;5.22;;;;;;;1.93;74.66;101860.31;5015040;28;20034;-84
2024/01/21 09:18:06;;;;;;;7.68;4.95;;;;;;;1.87;75.28;101839.06;5015555;28;20044;-84
2024/01/21 09:20:31;;;;;;;9.27;4.40;;;;;;;2.05;75.87;101886.22;4981500;28;20030;-84
2024/01/21 09:23:28;;;;;;;9.35;5.05;;;;;;;2.15;76.02;101919.91;4981263;28;20076;-84
2024/01/21 09:25:56;;;;;;;7.82;4.47;;;;;;;2.09;77.37;101908.16;4997070;28;20029;-85
2024/01/21 09:28:23;;;;;;;8.93;4.63;;;;;;;2.17;78.08;101933.00;5014737;28;20072;-85
2024/01/21 09:30:49;;;;;;;10.10;5.20;;;;;;;2.25;79.58;101943.13;4997571;28;20033;-86
2024/01/21 09:33:14;;;;;;;9.35;5.30;;;;;;;2.25;80.17;101927.47;4996826;28;20390;-83
2024/01/21 09:35:39;;;;;;;11.20;4.80;;;;;;;2.28;80.61;101918.94;5014192;28;20053;-85
2024/01/21 09:38:05;;;;;;;9.60;5.25;;;;;;;2.30;80.85;101943.38;5014217;28;20026;-82
2024/01/21 09:40:31;;;;;;;10.75;5.53;;;;;;;2.32;81.05;101956.56;5014492;28;20026;-84
2024/01/21 09:42:56;;;;;;;9.75;4.68;;;;;;;2.32;82.23;101957.44;4996693;28;20037;-86
2024/01/21 09:45:25;;;;;;;8.65;4.97;;;;;;;2.24;83.28;101930.00;5014032;28;20116;-87
2024/01/21 09:47:56;;;;;;;8.10;4.78;;;;;;;2.31;84.09;101952.09;5014212;28;20045;-85
2024/01/21 09:50:27;;;;;;;7.70;4.75;;;;;;;2.25;84.82;101943.13;4981019;28;20034;-86
2024/01/21 09:52:52;;;;;;;8.88;5.28;;;;;;;2.27;86.25;101951.06;5014629;28;20034;-87
2024/01/21 09:55:21;;;;;;;10.45;5.68;;;;;;;2.19;87.61;101934.03;5014795;28;20049;-87
2024/01/21 09:57:47;;;;;;;8.00;4.85;;;;;;;2.26;87.97;101955.34;4996900;28;20333;-87
2024/01/21 10:00:14;;;;;;;9.60;5.07;;;;;;;2.28;87.89;101950.22;5013996;28;20038;-85
2024/01/21 10:02:42;;;;;;;8.82;5.53;;;;;;;2.20;89.99;101957.56;5014004;28;20121;-86
2024/01/21 10:05:08;;;;;;;8.27;4.75;;;;;;;2.23;90.67;101942.13;5014012;28;20033;-84
2024/01/21 10:07:37;;;;;;;9.05;5.38;;;;;;;2.28;90.72;101958.06;4996115;28;20038;-86
2024/01/21 10:10:12;;;;;;;9.10;5.03;;;;;;;1.99;90.85;101891.97;5013668;28;20033;-88
2024/01/21 10:12:37;;;;;;;10.55;5.20;;;;;;;2.08;91.09;101898.56;5014262;28;20108;-89
2024/01/21 10:15:06;;;;;;;7.32;4.40;;;;;;;2.31;91.88;101939.06;4964242;28;20143;-90
2024/01/21 10:17:31;;;;;;;7.00;4.75;;;;;;;2.11;93.24;101909.19;4996442;28;20080;-88
2024/01/21 10:19:57;;;;;;;9.38;4.75;;;;;;;2.36;93.40;101941.19;5014088;28;20041;-86
2024/01/21 10:22:33;;;;;;;10.15;4.95;;;;;;;2.29;93.89;101918.13;5015262;28;20034;-90
2024/01/21 10:25:31;;;;;;;10.13;5.13;;;;;;;2.31;94.67;101916.50;5003077;28;20336;-93
2024/01/21 10:28:26;;;;;;;13.07;6.15;;;;;;;1.99;95.43;101847.66;4996521;28;20521;-92
2024/01/21 10:31:22;;;;;;;7.00;4.80;;;;;;;2.39;96.57;101922.19;4987539;28;20077;-91
2024/01/21 10:37:23;;;;;;;7.68;4.57;;;;;;;1.95;96.99;101806.56;4963329;28;20379;-90
2024/01/21 10:39:54;;;;;;;9.60;6.07;;;;;;;1.95;98.09;101800.47;4980243;28;20052;-90
2024/01/21 10:42:32;;;;;;;11.23;5.60;;;;;;;1.95;97.68;101831.72;5012877;28;20160;-87
2024/01/21 10:48:26;;;;;;;9.60;4.97;;;;;;;2.50;97.78;101887.22;5015854;28;20038;-92
2024/01/21 10:51:19;;;;;;;8.00;5.28;;;;;;;2.15;97.54;101830.34;5013309;28;20096;-93
2024/01/21 10:53:49;;;;;;;8.88;5.25;;;;;;;2.21;96.92;101815.06;5013436;28;20036;-87
2024/01/21 10:56:26;;;;;;;9.25;5.57;;;;;;;2.18;96.74;101797.50;4995603;28;20463;-87
2024/01/21 10:59:08;;;;;;;9.18;5.05;;;;;;;2.24;96.24;101794.41;5015387;28;20026;-95
2024/01/21 11:05:22;;;;;;;9.07;5.38;;;;;;;2.38;95.10;101780.44;5009486;28;20047;-87
2024/01/21 11:08:02;;;;;;;9.13;5.78;;;;;;;2.75;93.92;101832.19;5013326;28;20076;-86
2024/01/21 11:13:51;;;;;;;9.23;5.82;;;;;;;3.14;92.75;101864.91;4983104;28;20064;-88
2024/01/21 11:16:33;;;;;;;8.90;5.72;;;;;;;3.30;91.78;101873.56;4995618;28;20037;-89
2024/01/21 11:19:01;;;;;;;8.73;5.47;;;;;;;3.34;91.62;101884.31;5013872;28;20041;-96
2024/01/21 11:21:48;;;;;;;;;;;;;;;;;;;;;
2024/01/21 11:24:37;;;;;;;10.45;5.80;;;;;;;3.11;90.27;101830.75;5014544;28;20032;-88
2024/01/21 11:27:25;;;;;;;9.25;5.65;;;;;;;3.46;90.81;101866.69;4996642;28;20127;-90
2024/01/21 11:30:10;;;;;;;9.35;5.55;;;;;;;3.41;90.20;101848.97;4986258;28;20080;-88
2024/01/21 11:32:43;;;;;;;11.05;5.80;;;;;;;3.15;89.45;101790.94;5013124;28;20113;-87
2024/01/21 11:35:16;;;;;;;10.57;5.78;;;;;;;3.21;89.47;101803.44;5013204;28;20055;-87
2024/01/21 11:37:52;;;;;;;8.27;5.35;;;;;;;3.59;89.27;101870.88;5014029;28;20122;-86
2024/01/21 11:43:44;;;;;;;10.27;6.07;;;;;;;3.39;89.58;101803.59;5007614;28;20069;-88
2024/01/21 11:46:41;;;;;;;8.20;5.15;;;;;;;3.60;88.99;101829.97;4995287;28;20034;-87
2024/01/21 11:49:34;;;;;;;9.73;5.07;;;;;;;3.51;88.74;101817.28;4996537;28;20088;-93